CG5 weather

CLOSED Mary's Harbour Water Aerodrome
Mary's Harbour, Newfoundland and Labrador, Canada

Public forecast

Using degrees Celsius for public forecast. Weather courtesy of forecast.io.

Closest aviation weather report (METAR) to Mary's Harbour Water Aerodrome

Report is more than 6 hours old.

Closest report is Mary's Harbour Airport, 0.9 nm (1.7 km) SW. Retrieved 2020/08/03 20:00 UTC (6 hours ago):

CYMH 032000Z AUTO 09007KT 9SM -RA BKN100 13/12 A2983 RMK SLP104

Closest aviation forecast (TAF) to Mary's Harbour Water Aerodrome

Forecast is more than 6 hours old.

Closest forecast is Mary's Harbour Airport, 0.9 nm (1.7 km) SW. Retrieved 2020/08/03 20:00 UTC (6 hours ago):

TAF CYMH 031938Z 0320/0403 06010KT P6SM SCT080 TEMPO 0320/0322 P6SM -SHRA BKN020 FM032200 06007KT 6SM -RA BR OVC025 TEMPO 0322/0324 11/2SM -RA BR OVC005 FM040000 03010G20KT 3/4SM -RA BR OVC004 RMK FCST BASED ON AUTO OBS NXT FCST WILL BE ISSUED AT 040845Z